createdAt,value
2019-05-22T00:00:13.174Z,93830.36
2019-05-22T00:02:44.645Z,93828.02
2019-05-22T00:05:18.958Z,93830.09
2019-05-22T00:07:48.919Z,93828.54
2019-05-22T00:10:20.618Z,93829.25
2019-05-22T00:12:49.603Z,93825.41
2019-05-22T00:15:18.728Z,93830.64
2019-05-22T00:17:49.083Z,93834.56
2019-05-22T00:20:20.231Z,93836.39
2019-05-22T00:22:51.169Z,93842.42
2019-05-22T00:25:21.153Z,93841.87
2019-05-22T00:27:53.354Z,93844.73
2019-05-22T00:30:24.822Z,93842.14
2019-05-22T00:32:53.289Z,93843.20
2019-05-22T00:35:25.263Z,93845.83
2019-05-22T00:37:54.383Z,93846.09
2019-05-22T00:40:24.420Z,93843.53
2019-05-22T00:43:03.452Z,93843.25
2019-05-22T00:45:25.281Z,93842.25
2019-05-22T00:47:54.533Z,93844.31
2019-05-22T00:50:28.872Z,93843.03
2019-05-22T00:53:09.571Z,93847.23
2019-05-22T00:55:40.394Z,93847.73
2019-05-22T00:58:20.942Z,93852.96
2019-05-22T01:00:52.609Z,93852.91
2019-05-22T01:03:23.295Z,93854.25
2019-05-22T01:05:52.068Z,93854.78
2019-05-22T01:08:22.059Z,93852.19
2019-05-22T01:10:54.830Z,93845.67
2019-05-22T01:13:25.496Z,93844.12
2019-05-22T01:15:55.920Z,93850.14
2019-05-22T01:18:26.087Z,93851.20
2019-05-22T01:20:58.348Z,93851.43
2019-05-22T01:23:30.223Z,93851.97
2019-05-22T01:26:01.124Z,93855.13
2019-05-22T01:28:30.111Z,93856.98
2019-05-22T01:31:00.587Z,93859.08
2019-05-22T01:33:32.238Z,93861.45
2019-05-22T01:36:02.949Z,93864.31
2019-05-22T01:38:33.436Z,93860.66
2019-05-22T01:41:18.508Z,93863.01
2019-05-22T01:43:48.840Z,93865.37
2019-05-22T01:46:19.360Z,93855.67
2019-05-22T01:48:51.000Z,93860.39
2019-05-22T01:51:20.733Z,93860.91
2019-05-22T01:53:52.293Z,93863.25
2019-05-22T01:56:21.612Z,93861.70
2019-05-22T01:58:51.193Z,93865.08
2019-05-22T02:01:20.877Z,93865.63
2019-05-22T02:03:50.913Z,93866.39
2019-05-22T02:06:22.116Z,93870.86
2019-05-22T02:08:57.052Z,93871.38
2019-05-22T02:11:27.269Z,93872.14
2019-05-22T02:14:12.348Z,93867.42
2019-05-22T02:16:56.283Z,93871.84
2019-05-22T02:19:16.489Z,93871.33
2019-05-22T02:21:46.023Z,93866.59
2019-05-22T02:24:15.964Z,93870.79
2019-05-22T02:26:46.159Z,93870.00
2019-05-22T02:29:16.726Z,93870.79
2019-05-22T02:31:45.212Z,93868.66
2019-05-22T02:34:14.978Z,93862.39
2019-05-22T02:36:45.285Z,93859.26
2019-05-22T02:39:28.746Z,93867.63
2019-05-22T02:42:00.269Z,93864.25
2019-05-22T02:44:29.745Z,93864.25
2019-05-22T02:47:16.578Z,93868.17
2019-05-22T02:49:32.748Z,93870.52
2019-05-22T02:52:02.062Z,93867.65
2019-05-22T02:54:32.745Z,93867.92
2019-05-22T02:57:02.554Z,93874.73
2019-05-22T02:59:31.544Z,93873.43
2019-05-22T03:02:02.132Z,93873.70
2019-05-22T03:04:53.446Z,93871.55
2019-05-22T03:07:23.838Z,93873.16
2019-05-22T03:09:53.222Z,93871.30
2019-05-22T03:12:22.471Z,93875.48
2019-05-22T03:14:51.904Z,93874.98
2019-05-22T03:17:30.688Z,93873.92
2019-05-22T03:20:01.354Z,93872.39
2019-05-22T03:22:37.385Z,93873.41
2019-05-22T03:25:09.511Z,93872.88
2019-05-22T03:27:44.015Z,93871.80
2019-05-22T03:30:22.588Z,93873.43
2019-05-22T03:32:52.061Z,93879.16
2019-05-22T03:35:22.573Z,93879.95
2019-05-22T03:37:51.625Z,93883.59
2019-05-22T03:40:20.637Z,93880.47
2019-05-22T03:42:50.843Z,93881.26
2019-05-22T03:45:21.235Z,93875.72
2019-05-22T03:47:52.263Z,93885.70
2019-05-22T03:50:20.885Z,93880.47
2019-05-22T03:52:49.282Z,93879.42
2019-05-22T03:55:17.816Z,93883.04
2019-05-22T03:57:46.555Z,93885.66
2019-05-22T04:00:18.780Z,93882.80
2019-05-22T04:02:50.789Z,93889.26
2019-05-22T04:05:20.823Z,93884.84
2019-05-22T04:07:51.158Z,93890.59
2019-05-22T04:10:19.864Z,93889.58
2019-05-22T04:12:48.446Z,93896.15
2019-05-22T04:15:17.936Z,93898.72
2019-05-22T04:17:46.644Z,93895.83
2019-05-22T04:20:20.204Z,93897.44
2019-05-22T04:22:51.202Z,93902.42
2019-05-22T04:25:19.575Z,93909.23
2019-05-22T04:27:48.393Z,93905.80
2019-05-22T04:30:18.612Z,93906.58
2019-05-22T04:32:49.098Z,93910.75
2019-05-22T04:35:19.379Z,93917.05
2019-05-22T04:37:49.645Z,93911.28
2019-05-22T04:40:28.383Z,93909.48
2019-05-22T04:42:58.968Z,93916.52
2019-05-22T04:45:28.446Z,93913.38
2019-05-22T04:48:01.139Z,93915.19
2019-05-22T04:50:31.217Z,93916.50
2019-05-22T04:53:00.497Z,93913.63
2019-05-22T04:55:30.700Z,93917.54
2019-05-22T04:58:04.855Z,93921.22
2019-05-22T05:00:35.194Z,93927.19
2019-05-22T05:03:05.718Z,93923.81
2019-05-22T05:05:42.237Z,93927.73
2019-05-22T05:08:12.117Z,93932.67
2019-05-22T05:10:43.842Z,93927.49
2019-05-22T05:13:12.416Z,93927.19
2019-05-22T05:15:40.817Z,93928.25
2019-05-22T05:18:09.702Z,93924.88
2019-05-22T05:20:39.108Z,93924.33
2019-05-22T05:23:07.937Z,93927.49
2019-05-22T05:25:36.593Z,93927.19
2019-05-22T05:28:07.258Z,93927.97
2019-05-22T05:30:35.653Z,93921.09
2019-05-22T05:33:05.470Z,93929.99
2019-05-22T05:35:35.170Z,93932.09
2019-05-22T05:38:05.518Z,93932.86
2019-05-22T05:40:40.203Z,93934.98
2019-05-22T05:43:11.621Z,93936.02
2019-05-22T05:45:42.286Z,93939.38
2019-05-22T05:48:13.747Z,93942.00
2019-05-22T05:51:02.209Z,93946.17
2019-05-22T05:53:33.533Z,93949.83
2019-05-22T05:56:16.452Z,93952.43
2019-05-22T05:58:45.461Z,93955.27
2019-05-22T06:01:20.360Z,93960.78
2019-05-22T06:03:49.624Z,93958.44
2019-05-22T06:06:25.953Z,93960.98
2019-05-22T06:08:54.916Z,93961.46
2019-05-22T06:11:40.928Z,93962.20
2019-05-22T06:14:11.745Z,93954.82
2019-05-22T06:16:53.831Z,93964.43
2019-05-22T06:19:23.724Z,93962.55
2019-05-22T06:21:52.458Z,93963.76
2019-05-22T06:24:25.586Z,93966.92
2019-05-22T06:26:57.596Z,93975.47
2019-05-22T06:29:29.295Z,93975.20
2019-05-22T06:32:07.838Z,93974.38
2019-05-22T06:34:37.730Z,93976.70
2019-05-22T06:37:44.514Z,93976.41
2019-05-22T06:40:13.788Z,93975.39
2019-05-22T06:42:44.975Z,93978.02
2019-05-22T06:45:13.441Z,93981.64
2019-05-22T06:47:41.831Z,93981.07
2019-05-22T06:50:11.039Z,93984.92
2019-05-22T06:52:39.763Z,93988.58
2019-05-22T06:55:09.009Z,93988.47
2019-05-22T06:57:37.669Z,93987.40
2019-05-22T07:00:14.231Z,93989.17
2019-05-22T07:02:39.687Z,93988.05
2019-05-22T07:05:09.196Z,93987.92
2019-05-22T07:07:37.839Z,93993.36
2019-05-22T07:10:08.235Z,93991.47
2019-05-22T07:12:37.058Z,93990.61
2019-05-22T07:15:10.435Z,93989.57
2019-05-22T07:17:39.674Z,93990.09
2019-05-22T07:20:08.901Z,93987.37
2019-05-22T07:22:37.531Z,93988.30
2019-05-22T07:25:09.693Z,93991.11
2019-05-22T07:27:38.789Z,93990.25
2019-05-22T07:30:09.727Z,93995.67
2019-05-22T07:32:39.030Z,93996.46
2019-05-22T07:35:08.637Z,93995.11
2019-05-22T07:37:45.418Z,93997.43
2019-05-22T07:40:14.432Z,93993.56
2019-05-22T07:42:42.827Z,93990.73
2019-05-22T07:45:11.951Z,93985.69
2019-05-22T07:47:42.617Z,93990.34
2019-05-22T07:50:12.921Z,93987.41
2019-05-22T07:52:41.483Z,93992.18
2019-05-22T07:55:10.342Z,93998.05
2019-05-22T07:57:41.058Z,93990.00
2019-05-22T08:00:10.603Z,93990.21
2019-05-22T08:02:42.047Z,93985.83
2019-05-22T08:05:12.813Z,93989.86
2019-05-22T08:07:41.619Z,93992.12
2019-05-22T08:10:13.915Z,93988.35
2019-05-22T08:12:43.946Z,93986.58
2019-05-22T08:15:13.156Z,93988.96
2019-05-22T08:17:42.625Z,93989.13
2019-05-22T08:20:11.846Z,93988.45
2019-05-22T08:22:40.674Z,93986.22
2019-05-22T08:25:09.933Z,93984.30
2019-05-22T08:27:39.821Z,93986.30
2019-05-22T08:30:09.109Z,93986.84
2019-05-22T08:32:38.642Z,93986.81
2019-05-22T08:35:09.038Z,93988.52
2019-05-22T08:37:39.642Z,93984.95
2019-05-22T08:40:11.663Z,93988.02
2019-05-22T08:42:41.367Z,93994.02
2019-05-22T08:45:11.592Z,93988.90
2019-05-22T08:47:40.579Z,93996.24
2019-05-22T08:50:12.279Z,94000.09
2019-05-22T08:52:44.796Z,94002.86
2019-05-22T08:55:14.424Z,93999.11
2019-05-22T08:57:43.527Z,94004.09
2019-05-22T09:00:19.275Z,94010.13
2019-05-22T09:02:48.232Z,94010.09
2019-05-22T09:05:20.956Z,94006.28
2019-05-22T09:07:47.527Z,94006.33
2019-05-22T09:10:16.254Z,94012.32
2019-05-22T09:12:44.638Z,94008.97
2019-05-22T09:15:13.712Z,94011.75
2019-05-22T09:17:42.370Z,94014.77
2019-05-22T09:20:11.946Z,94013.06
2019-05-22T09:22:41.599Z,94016.62
2019-05-22T09:25:13.827Z,94020.09
2019-05-22T09:27:43.109Z,94018.37
2019-05-22T09:30:13.090Z,94022.66
2019-05-22T09:32:41.734Z,94025.14
2019-05-22T09:35:11.767Z,94022.36
2019-05-22T09:37:40.536Z,94027.52
2019-05-22T09:40:09.252Z,94030.24
2019-05-22T09:42:38.312Z,94033.53
2019-05-22T09:45:08.501Z,94028.52
2019-05-22T09:47:38.714Z,94031.80
2019-05-22T09:50:11.062Z,94042.45
2019-05-22T09:52:56.226Z,94042.23
2019-05-22T09:55:13.042Z,94048.11
2019-05-22T09:57:43.177Z,94054.69
2019-05-22T10:00:12.957Z,94052.39
2019-05-22T10:02:41.993Z,94053.66
2019-05-22T10:05:11.632Z,94054.30
2019-05-22T10:07:57.753Z,94057.83
2019-05-22T10:10:14.011Z,94056.33
2019-05-22T10:12:42.754Z,94059.80
2019-05-22T10:15:13.150Z,94063.69
2019-05-22T10:17:47.334Z,94057.73
2019-05-22T10:20:17.319Z,94065.27
2019-05-22T10:22:46.285Z,94064.37
2019-05-22T10:25:17.194Z,94055.44
2019-05-22T10:27:47.117Z,94058.02
2019-05-22T10:30:19.185Z,94066.55
2019-05-22T10:32:48.021Z,94067.05
2019-05-22T10:35:17.398Z,94062.63
2019-05-22T10:37:46.135Z,94059.14
2019-05-22T10:40:15.652Z,94064.04
2019-05-22T10:42:45.430Z,94067.09
2019-05-22T10:45:14.146Z,94071.15
2019-05-22T10:47:44.054Z,94067.70
2019-05-22T10:50:13.869Z,94065.85
2019-05-22T10:52:42.835Z,94066.56
2019-05-22T10:55:12.924Z,94068.52
2019-05-22T10:57:42.921Z,94063.16
2019-05-22T11:00:14.936Z,94068.09
2019-05-22T11:02:43.746Z,94058.72
2019-05-22T11:05:13.079Z,94062.50
2019-05-22T11:07:41.628Z,94066.19
2019-05-22T11:10:10.859Z,94062.23
2019-05-22T11:12:39.878Z,94063.94
2019-05-22T11:15:09.424Z,94069.53
2019-05-22T11:17:39.294Z,94073.83
2019-05-22T11:20:09.979Z,94077.80
2019-05-22T11:22:38.825Z,94074.72
2019-05-22T11:25:08.737Z,94080.30
2019-05-22T11:27:37.726Z,94080.75
2019-05-22T11:30:11.254Z,94081.27
2019-05-22T11:32:40.222Z,94080.98
2019-05-22T11:35:10.251Z,94076.13
2019-05-22T11:37:39.360Z,94083.20
2019-05-22T11:40:08.867Z,94086.45
2019-05-22T11:42:39.215Z,94087.98
2019-05-22T11:45:11.198Z,94091.36
2019-05-22T11:47:41.017Z,94089.80
2019-05-22T11:50:11.906Z,94089.16
2019-05-22T11:52:42.108Z,94093.56
2019-05-22T11:55:12.519Z,94087.48
2019-05-22T11:57:43.231Z,94092.14
2019-05-22T12:00:12.985Z,94090.77
2019-05-22T12:02:41.538Z,94092.73
2019-05-22T12:05:10.487Z,94095.84
2019-05-22T12:07:43.732Z,94098.34
2019-05-22T12:10:14.792Z,94102.81
2019-05-22T12:12:44.809Z,94102.13
2019-05-22T12:15:15.156Z,94101.09
2019-05-22T12:17:44.880Z,94105.73
2019-05-22T12:20:15.181Z,94098.86
2019-05-22T12:22:43.628Z,94104.08
2019-05-22T12:25:14.871Z,94103.01
2019-05-22T12:27:43.892Z,94099.81
2019-05-22T12:30:13.735Z,94095.67
2019-05-22T12:32:42.368Z,94102.26
2019-05-22T12:35:13.743Z,94100.89
2019-05-22T12:37:42.953Z,94100.39
2019-05-22T12:40:14.209Z,94101.37
2019-05-22T12:42:42.599Z,94100.27
2019-05-22T12:45:12.817Z,94099.64
2019-05-22T12:47:43.277Z,94096.83
2019-05-22T12:50:15.688Z,94096.48
2019-05-22T12:52:47.124Z,94095.66
2019-05-22T12:55:17.209Z,94089.41
2019-05-22T12:57:46.052Z,94089.67
2019-05-22T13:00:15.645Z,94088.16
2019-05-22T13:02:44.581Z,94084.39
2019-05-22T13:05:14.529Z,94083.41
2019-05-22T13:07:43.304Z,94082.77
2019-05-22T13:10:12.144Z,94078.61
2019-05-22T13:12:40.545Z,94074.45
2019-05-22T13:15:11.014Z,94074.22
2019-05-22T13:17:40.884Z,94076.78
2019-05-22T13:20:12.266Z,94070.02
2019-05-22T13:22:43.991Z,94067.96
2019-05-22T13:25:15.449Z,94066.50
2019-05-22T13:27:45.808Z,94072.25
2019-05-22T13:30:17.142Z,94073.03
2019-05-22T13:32:46.258Z,94071.87
2019-05-22T13:35:17.670Z,94070.02
2019-05-22T13:37:46.354Z,94062.53
2019-05-22T13:40:27.026Z,94059.89
2019-05-22T13:42:45.757Z,94059.51
2019-05-22T13:45:28.688Z,94063.77
2019-05-22T13:47:46.112Z,94063.54
2019-05-22T13:50:17.387Z,94064.59
2019-05-22T13:52:46.637Z,94067.89
2019-05-22T13:55:15.770Z,94069.65
2019-05-22T13:57:44.584Z,94065.45
2019-05-22T14:00:16.529Z,94060.05
2019-05-22T14:02:44.923Z,94066.48
2019-05-22T14:05:14.115Z,94065.08
2019-05-22T14:07:42.686Z,94061.44
2019-05-22T14:10:11.652Z,94062.08
2019-05-22T14:12:40.104Z,94058.06
2019-05-22T14:15:09.239Z,94063.98
2019-05-22T14:17:37.785Z,94060.86
2019-05-22T14:20:09.528Z,94061.17
2019-05-22T14:22:38.443Z,94060.69
2019-05-22T14:25:08.682Z,94059.28
2019-05-22T14:27:41.452Z,94060.14
2019-05-22T14:30:09.431Z,94061.83
2019-05-22T14:32:38.163Z,94057.00
2019-05-22T14:35:07.162Z,94056.34
2019-05-22T14:37:35.618Z,94057.22
2019-05-22T14:40:07.277Z,94050.73
2019-05-22T14:42:35.641Z,94053.88
2019-05-22T14:45:05.930Z,94052.11
2019-05-22T14:47:34.319Z,94053.48
2019-05-22T14:50:03.535Z,94050.05
2019-05-22T14:52:32.673Z,94052.25
2019-05-22T14:55:01.657Z,94050.34
2019-05-22T14:57:30.174Z,94050.52
2019-05-22T14:59:58.989Z,94050.20
2019-05-22T15:02:28.101Z,94052.09
2019-05-22T15:04:57.444Z,94052.97
2019-05-22T15:07:25.996Z,94051.91
2019-05-22T15:09:54.420Z,94052.87
2019-05-22T15:12:22.870Z,94056.25
2019-05-22T15:14:51.323Z,94049.42
2019-05-22T15:17:31.869Z,94047.63
2019-05-22T15:19:50.840Z,94051.30
2019-05-22T15:22:19.741Z,94042.73
2019-05-22T15:24:48.194Z,94049.17
2019-05-22T15:27:16.587Z,94044.45
2019-05-22T15:29:44.968Z,94046.53
2019-05-22T15:32:13.869Z,94039.32
2019-05-22T15:34:43.260Z,94043.27
2019-05-22T15:37:13.563Z,94039.26
2019-05-22T15:39:43.424Z,94027.00
2019-05-22T15:42:15.605Z,94043.96
2019-05-22T15:44:44.824Z,94038.09
2019-05-22T15:47:13.612Z,94039.21
2019-05-22T15:49:44.302Z,94031.08
2019-05-22T15:52:16.207Z,94030.59
2019-05-22T15:54:46.059Z,94032.91
2019-05-22T15:57:17.799Z,94031.06
2019-05-22T15:59:48.703Z,94030.47
2019-05-22T16:02:21.752Z,94035.79
2019-05-22T16:04:50.727Z,94027.77
2019-05-22T16:07:19.130Z,94031.91
2019-05-22T16:09:50.797Z,94024.52
2019-05-22T16:12:19.635Z,94029.52
2019-05-22T16:14:50.206Z,94032.02
2019-05-22T16:17:19.211Z,94025.20
2019-05-22T16:19:48.840Z,94027.73
2019-05-22T16:22:17.474Z,94031.01
2019-05-22T16:24:46.017Z,94025.31
2019-05-22T16:27:16.258Z,94022.64
2019-05-22T16:29:45.106Z,94029.06
2019-05-22T16:32:16.652Z,94028.72
2019-05-22T16:34:45.374Z,94029.27
2019-05-22T16:37:14.137Z,94029.34
2019-05-22T16:39:42.601Z,94027.68
2019-05-22T16:42:11.643Z,94031.01
2019-05-22T16:44:40.423Z,94024.92
2019-05-22T16:47:11.169Z,94032.98
2019-05-22T16:49:39.984Z,94034.89
2019-05-22T16:52:10.650Z,94037.55
2019-05-22T16:54:41.243Z,94035.19
2019-05-22T16:57:11.580Z,94031.70
2019-05-22T16:59:40.875Z,94032.63
2019-05-22T17:02:11.997Z,94033.89
2019-05-22T17:04:40.903Z,94037.62
2019-05-22T17:07:09.361Z,94041.53
2019-05-22T17:09:39.712Z,94041.45
2019-05-22T17:12:11.341Z,94041.37
2019-05-22T17:14:41.327Z,94042.09
2019-05-22T17:17:11.530Z,94041.30
2019-05-22T17:19:40.181Z,94045.75
2019-05-22T17:22:09.585Z,94049.16
2019-05-22T17:24:38.238Z,94045.89
2019-05-22T17:27:08.054Z,94046.38
2019-05-22T17:29:36.838Z,94043.72
2019-05-22T17:32:06.533Z,94047.63
2019-05-22T17:34:37.468Z,94043.01
2019-05-22T17:37:13.515Z,94045.63
2019-05-22T17:39:45.410Z,94044.88
2019-05-22T17:42:19.965Z,94048.84
2019-05-22T17:44:50.651Z,94044.65
2019-05-22T17:47:21.751Z,94046.93
2019-05-22T17:49:50.910Z,94049.87
2019-05-22T17:52:21.125Z,94047.58
2019-05-22T17:54:52.039Z,94054.02
2019-05-22T17:57:22.593Z,94050.64
2019-05-22T17:59:53.158Z,94053.97
2019-05-22T18:02:23.858Z,94057.03
2019-05-22T18:04:52.538Z,94054.28
2019-05-22T18:07:22.248Z,94061.72
2019-05-22T18:09:50.718Z,94062.94
2019-05-22T18:12:19.951Z,94063.84
2019-05-22T18:14:48.914Z,94064.49
2019-05-22T18:17:17.745Z,94058.84
2019-05-22T18:19:46.891Z,94061.77
2019-05-22T18:22:15.799Z,94058.55
2019-05-22T18:24:44.968Z,94062.84
2019-05-22T18:27:13.686Z,94066.83
2019-05-22T18:29:42.378Z,94068.89
2019-05-22T18:32:11.676Z,94069.67
2019-05-22T18:34:40.467Z,94074.05
2019-05-22T18:37:08.848Z,94073.13
2019-05-22T18:39:37.745Z,94074.42
2019-05-22T18:42:06.063Z,94073.67
2019-05-22T18:44:34.821Z,94079.83
2019-05-22T18:47:05.238Z,94080.45
2019-05-22T18:49:33.633Z,94076.36
2019-05-22T18:52:02.299Z,94085.53
2019-05-22T18:54:30.812Z,94085.63
2019-05-22T18:56:59.547Z,94090.52
2019-05-22T18:59:27.974Z,94094.55
2019-05-22T19:01:56.947Z,94097.09
2019-05-22T19:04:25.387Z,94103.75
2019-05-22T19:06:56.018Z,94102.29
2019-05-22T19:09:24.946Z,94099.51
2019-05-22T19:11:53.634Z,94103.26
2019-05-22T19:14:22.220Z,94098.08
2019-05-22T19:16:51.004Z,94105.58
2019-05-22T19:19:20.013Z,94107.02
2019-05-22T19:21:48.450Z,94106.58
2019-05-22T19:24:16.991Z,94109.73
2019-05-22T19:26:45.914Z,94108.70
2019-05-22T19:29:14.563Z,94118.02
2019-05-22T19:31:42.970Z,94123.84
2019-05-22T19:34:12.212Z,94123.63
2019-05-22T19:36:40.584Z,94131.84
2019-05-22T19:39:09.696Z,94132.71
2019-05-22T19:41:38.158Z,94133.09
2019-05-22T19:44:07.622Z,94137.84
2019-05-22T19:46:36.290Z,94134.14
2019-05-22T19:49:05.726Z,94136.48
2019-05-22T19:51:34.691Z,94142.33
2019-05-22T19:54:04.324Z,94139.19
2019-05-22T19:56:33.681Z,94143.69
2019-05-22T19:59:02.775Z,94141.05
2019-05-22T20:01:33.038Z,94146.83
2019-05-22T20:04:02.307Z,94140.02
2019-05-22T20:06:30.886Z,94149.22
2019-05-22T20:08:59.298Z,94149.22
2019-05-22T20:11:27.823Z,94156.27
2019-05-22T20:13:56.668Z,94158.62
2019-05-22T20:16:25.142Z,94157.06
2019-05-22T20:18:54.033Z,94159.48
2019-05-22T20:21:22.703Z,94157.94
2019-05-22T20:23:51.373Z,94157.14
2019-05-22T20:26:20.942Z,94156.66
2019-05-22T20:28:49.666Z,94159.08
2019-05-22T20:31:18.139Z,94155.69
2019-05-22T20:33:46.794Z,94158.34
2019-05-22T20:36:16.455Z,94162.36
2019-05-22T20:38:45.301Z,94158.72
2019-05-22T20:41:13.714Z,94163.73
2019-05-22T20:43:43.873Z,94172.17
2019-05-22T20:46:15.112Z,94164.56
2019-05-22T20:48:43.560Z,94164.33
2019-05-22T20:51:19.217Z,94166.98
2019-05-22T20:53:54.308Z,94169.37
2019-05-22T20:56:21.126Z,94174.38
2019-05-22T20:58:50.082Z,94179.39
2019-05-22T21:01:18.961Z,94181.77
2019-05-22T21:03:47.343Z,94179.36
2019-05-22T21:06:18.318Z,94179.14
2019-05-22T21:08:47.284Z,94173.89
2019-05-22T21:11:17.587Z,94173.68
2019-05-22T21:13:46.309Z,94178.93
2019-05-22T21:16:16.944Z,94178.37
2019-05-22T21:18:50.003Z,94177.55
2019-05-22T21:21:20.435Z,94177.55
2019-05-22T21:23:49.156Z,94180.48
2019-05-22T21:26:18.829Z,94180.77
2019-05-22T21:28:48.679Z,94174.44
2019-05-22T21:31:18.250Z,94180.77
2019-05-22T21:33:46.979Z,94186.53
2019-05-22T21:36:16.573Z,94185.77
2019-05-22T21:38:46.402Z,94189.47
2019-05-22T21:41:14.795Z,94185.53
2019-05-22T21:43:43.178Z,94182.91
2019-05-22T21:46:12.282Z,94182.91
2019-05-22T21:48:41.509Z,94182.62
2019-05-22T21:51:10.559Z,94186.33
2019-05-22T21:53:39.528Z,94185.07
2019-05-22T21:56:09.240Z,94181.44
2019-05-22T21:58:38.440Z,94187.20
2019-05-22T22:01:10.365Z,94192.48
2019-05-22T22:03:40.473Z,94192.52
2019-05-22T22:06:09.770Z,94190.22
2019-05-22T22:08:38.152Z,94187.30
2019-05-22T22:11:08.196Z,94189.98
2019-05-22T22:13:39.340Z,94185.27
2019-05-22T22:16:08.587Z,94184.23
2019-05-22T22:18:38.994Z,94178.52
2019-05-22T22:21:08.074Z,94177.81
2019-05-22T22:23:37.327Z,94176.50
2019-05-22T22:26:24.180Z,94178.91
2019-05-22T22:28:38.263Z,94177.63
2019-05-22T22:31:11.383Z,94180.73
2019-05-22T22:33:42.260Z,94180.03
2019-05-22T22:36:11.202Z,94181.37
2019-05-22T22:38:40.178Z,94180.33
2019-05-22T22:41:09.895Z,94178.50
2019-05-22T22:43:39.522Z,94179.53
2019-05-22T22:46:12.643Z,94180.08
2019-05-22T22:48:43.296Z,94178.22
2019-05-22T22:51:13.028Z,94180.33
2019-05-22T22:53:44.466Z,94182.98
2019-05-22T22:56:14.103Z,94175.92
2019-05-22T22:58:42.791Z,94172.50
2019-05-22T23:01:15.208Z,94175.16
2019-05-22T23:03:47.379Z,94164.41
2019-05-22T23:06:17.319Z,94167.83
2019-05-22T23:08:47.260Z,94171.22
2019-05-22T23:11:17.058Z,94173.59
2019-05-22T23:13:46.300Z,94174.91
2019-05-22T23:16:16.059Z,94176.22
2019-05-22T23:19:04.360Z,94172.31
2019-05-22T23:21:33.486Z,94171.55
2019-05-22T23:24:00.737Z,94172.64
2019-05-22T23:26:30.095Z,94172.34
2019-05-22T23:28:59.289Z,94174.49
2019-05-22T23:31:29.251Z,94180.31
2019-05-22T23:33:59.195Z,94187.66
2019-05-22T23:36:28.528Z,94182.16
2019-05-22T23:38:59.512Z,94186.42
2019-05-22T23:41:30.640Z,94181.25
2019-05-22T23:43:59.800Z,94178.92
2019-05-22T23:46:29.135Z,94179.48
2019-05-22T23:48:59.343Z,94179.80
2019-05-22T23:51:28.697Z,94182.47
2019-05-22T23:53:58.271Z,94185.42
2019-05-22T23:56:27.765Z,94175.23
2019-05-22T23:58:58.479Z,94170.86
